W29 weather

Bay Bridge Airport
Stevensville, Maryland, United States

Public forecast

Using degrees Fahrenheit for public forecast. Weather courtesy of forecast.io.

Closest aviation weather report (METAR) to Bay Bridge Airport

Closest report is Easton Newnam Field, 16.0 nm (29.6 km) SE. Retrieved 2019/11/17 09:32 UTC (0 seconds ago):

KESN 170932Z AUTO 01012KT 10SM BKN026 BKN032 03/M07 A3029 RMK AO2 T00261067

Closest aviation forecast (TAF) to Bay Bridge Airport

Closest forecast is Baltimore/Washington International Thurgood Marshall Airport, 19.8 nm (36.7 km) NW. Retrieved 2019/11/17 06:00 UTC (3 hours ago):

TAF KBWI 170558Z 1706/1812 03010G21KT P6SM SCT045 BKN130 FM171000 02010G21KT P6SM SCT040 BKN050 FM171400 03010G21KT P6SM SCT030 BKN050 FM171700 03010G20KT P6SM SCT030 BKN035 FM172000 03009KT P6SM SCT025 BKN030 FM180400 01008KT P6SM SCT020 BKN025